sensor_id;sensor_type;location;lat;lon;timestamp;pressure;altitude;pressure_sealevel;temperature;humidity
47082;BME280;33066;49.296;14.470;2023-10-08T00:00:14;97225.81;;;20.90;34.07
47082;BME280;33066;49.296;14.470;2023-10-08T00:02:39;97224.84;;;20.96;33.97
47082;BME280;33066;49.296;14.470;2023-10-08T00:05:05;97224.66;;;20.95;33.92
47082;BME280;33066;49.296;14.470;2023-10-08T00:07:30;97228.06;;;21.00;33.88
47082;BME280;33066;49.296;14.470;2023-10-08T00:09:55;97230.81;;;21.13;33.98
47082;BME280;33066;49.296;14.470;2023-10-08T00:12:20;97239.21;;;20.87;33.99
47082;BME280;33066;49.296;14.470;2023-10-08T00:14:46;97240.21;;;21.07;33.89
47082;BME280;33066;49.296;14.470;2023-10-08T00:17:12;97231.72;;;20.81;34.02
47082;BME280;33066;49.296;14.470;2023-10-08T00:19:36;97222.83;;;20.86;34.00
47082;BME280;33066;49.296;14.470;2023-10-08T00:22:01;97221.68;;;20.67;33.99
47082;BME280;33066;49.296;14.470;2023-10-08T00:24:26;97223.69;;;20.79;33.92
47082;BME280;33066;49.296;14.470;2023-10-08T00:26:51;97226.52;;;20.89;34.01
47082;BME280;33066;49.296;14.470;2023-10-08T00:29:16;97228.59;;;20.85;34.10
47082;BME280;33066;49.296;14.470;2023-10-08T00:31:42;97221.57;;;20.55;34.13
47082;BME280;33066;49.296;14.470;2023-10-08T00:34:07;97215.55;;;20.63;34.05
47082;BME280;33066;49.296;14.470;2023-10-08T00:36:31;97202.79;;;20.91;34.07
47082;BME280;33066;49.296;14.470;2023-10-08T00:38:57;97212.25;;;20.94;33.95
47082;BME280;33066;49.296;14.470;2023-10-08T00:41:22;97211.96;;;20.53;34.04
47082;BME280;33066;49.296;14.470;2023-10-08T00:43:48;97210.96;;;20.81;34.08
47082;BME280;33066;49.296;14.470;2023-10-08T00:46:12;97215.79;;;20.88;33.95
47082;BME280;33066;49.296;14.470;2023-10-08T00:48:37;97211.81;;;20.86;33.97
47082;BME280;33066;49.296;14.470;2023-10-08T00:51:02;97212.09;;;20.86;33.95
47082;BME280;33066;49.296;14.470;2023-10-08T00:53:27;97223.04;;;20.56;33.98
47082;BME280;33066;49.296;14.470;2023-10-08T00:55:52;97214.74;;;20.77;33.99
47082;BME280;33066;49.296;14.470;2023-10-08T00:58:18;97217.78;;;20.84;33.96
47082;BME280;33066;49.296;14.470;2023-10-08T01:00:43;97214.02;;;20.87;33.88
47082;BME280;33066;49.296;14.470;2023-10-08T01:03:08;97219.12;;;20.88;33.89
47082;BME280;33066;49.296;14.470;2023-10-08T01:05:33;97220.78;;;20.72;33.86
47082;BME280;33066;49.296;14.470;2023-10-08T01:07:59;97218.57;;;20.72;33.83
47082;BME280;33066;49.296;14.470;2023-10-08T01:10:24;97215.32;;;20.71;33.84
47082;BME280;33066;49.296;14.470;2023-10-08T01:12:49;97210.38;;;20.50;33.77
47082;BME280;33066;49.296;14.470;2023-10-08T01:15:15;97207.85;;;20.93;33.82
47082;BME280;33066;49.296;14.470;2023-10-08T01:17:40;97214.31;;;20.76;33.83
47082;BME280;33066;49.296;14.470;2023-10-08T01:20:06;97211.09;;;20.85;33.78
47082;BME280;33066;49.296;14.470;2023-10-08T01:22:30;97214.17;;;20.64;33.74
47082;BME280;33066;49.296;14.470;2023-10-08T01:24:55;97214.72;;;21.14;33.70
47082;BME280;33066;49.296;14.470;2023-10-08T01:27:21;97214.73;;;21.10;33.64
47082;BME280;33066;49.296;14.470;2023-10-08T01:29:46;97214.00;;;21.08;33.72
47082;BME280;33066;49.296;14.470;2023-10-08T01:32:11;97212.45;;;20.85;33.77
47082;BME280;33066;49.296;14.470;2023-10-08T01:34:36;97210.23;;;21.02;33.73
47082;BME280;33066;49.296;14.470;2023-10-08T01:37:01;97209.41;;;21.08;33.66
47082;BME280;33066;49.296;14.470;2023-10-08T01:39:26;97213.33;;;20.91;33.65
47082;BME280;33066;49.296;14.470;2023-10-08T01:41:51;97221.72;;;20.71;33.68
47082;BME280;33066;49.296;14.470;2023-10-08T01:44:17;97214.48;;;21.22;33.66
47082;BME280;33066;49.296;14.470;2023-10-08T01:46:43;97199.35;;;20.69;33.64
47082;BME280;33066;49.296;14.470;2023-10-08T01:49:07;97214.25;;;20.93;33.63
47082;BME280;33066;49.296;14.470;2023-10-08T01:51:32;97210.31;;;20.88;33.58
47082;BME280;33066;49.296;14.470;2023-10-08T01:53:57;97206.05;;;21.13;33.58
47082;BME280;33066;49.296;14.470;2023-10-08T01:56:22;97207.92;;;20.86;33.61
47082;BME280;33066;49.296;14.470;2023-10-08T01:58:47;97207.43;;;21.13;33.60
47082;BME280;33066;49.296;14.470;2023-10-08T02:01:13;97216.36;;;20.58;33.61
47082;BME280;33066;49.296;14.470;2023-10-08T02:03:38;97229.95;;;20.95;33.75
47082;BME280;33066;49.296;14.470;2023-10-08T02:06:03;97231.54;;;20.96;33.71
47082;BME280;33066;49.296;14.470;2023-10-08T02:08:28;97226.04;;;20.74;33.72
47082;BME280;33066;49.296;14.470;2023-10-08T02:10:53;97225.82;;;21.00;33.79
47082;BME280;33066;49.296;14.470;2023-10-08T02:13:18;97222.95;;;20.95;33.76
47082;BME280;33066;49.296;14.470;2023-10-08T02:15:44;97224.53;;;20.78;33.72
47082;BME280;33066;49.296;14.470;2023-10-08T02:18:09;97224.69;;;20.78;33.70
47082;BME280;33066;49.296;14.470;2023-10-08T02:20:34;97220.50;;;20.73;33.67
47082;BME280;33066;49.296;14.470;2023-10-08T02:22:59;97223.74;;;21.02;33.59
47082;BME280;33066;49.296;14.470;2023-10-08T02:25:24;97225.87;;;20.99;33.61
47082;BME280;33066;49.296;14.470;2023-10-08T02:27:50;97224.58;;;19.70;33.47
47082;BME280;33066;49.296;14.470;2023-10-08T02:30:15;97222.68;;;20.93;33.05
47082;BME280;33066;49.296;14.470;2023-10-08T02:32:40;97235.63;;;20.96;33.29
47082;BME280;33066;49.296;14.470;2023-10-08T02:35:05;97228.46;;;20.87;33.42
47082;BME280;33066;49.296;14.470;2023-10-08T02:37:30;97237.98;;;20.76;33.56
47082;BME280;33066;49.296;14.470;2023-10-08T02:39:55;97237.40;;;20.95;33.62
47082;BME280;33066;49.296;14.470;2023-10-08T02:42:20;97231.57;;;20.98;33.63
47082;BME280;33066;49.296;14.470;2023-10-08T02:44:46;97228.62;;;21.08;33.54
47082;BME280;33066;49.296;14.470;2023-10-08T02:47:12;97230.68;;;20.90;33.49
47082;BME280;33066;49.296;14.470;2023-10-08T02:49:36;97240.71;;;21.04;33.57
47082;BME280;33066;49.296;14.470;2023-10-08T02:52:01;97234.40;;;21.02;33.57
47082;BME280;33066;49.296;14.470;2023-10-08T02:54:26;97229.19;;;21.05;33.61
47082;BME280;33066;49.296;14.470;2023-10-08T02:56:53;97226.18;;;20.84;33.60
47082;BME280;33066;49.296;14.470;2023-10-08T02:59:17;97227.21;;;21.13;33.58
47082;BME280;33066;49.296;14.470;2023-10-08T03:01:42;97233.68;;;21.20;33.49
47082;BME280;33066;49.296;14.470;2023-10-08T03:04:08;97224.56;;;20.96;33.52
47082;BME280;33066;49.296;14.470;2023-10-08T03:06:32;97218.03;;;21.04;33.48
47082;BME280;33066;49.296;14.470;2023-10-08T03:08:58;97210.94;;;21.04;33.45
47082;BME280;33066;49.296;14.470;2023-10-08T03:13:01;97206.92;;;21.22;33.12
47082;BME280;33066;49.296;14.470;2023-10-08T03:15:26;97205.38;;;21.10;33.24
47082;BME280;33066;49.296;14.470;2023-10-08T03:17:51;97210.69;;;21.03;33.33
47082;BME280;33066;49.296;14.470;2023-10-08T03:20:17;97204.37;;;21.08;33.52
47082;BME280;33066;49.296;14.470;2023-10-08T03:22:41;97200.39;;;21.02;33.63
47082;BME280;33066;49.296;14.470;2023-10-08T03:25:07;97195.41;;;21.04;33.70
47082;BME280;33066;49.296;14.470;2023-10-08T03:27:32;97194.20;;;20.94;33.84
47082;BME280;33066;49.296;14.470;2023-10-08T03:29:57;97183.97;;;20.95;33.88
47082;BME280;33066;49.296;14.470;2023-10-08T03:32:22;97186.56;;;20.65;33.99
47082;BME280;33066;49.296;14.470;2023-10-08T03:34:49;97177.25;;;20.84;34.07
47082;BME280;33066;49.296;14.470;2023-10-08T03:37:14;97170.83;;;20.84;34.14
47082;BME280;33066;49.296;14.470;2023-10-08T03:39:38;97169.45;;;20.88;34.09
47082;BME280;33066;49.296;14.470;2023-10-08T03:42:03;97164.04;;;20.88;34.12
47082;BME280;33066;49.296;14.470;2023-10-08T03:44:28;97174.63;;;20.84;34.18
47082;BME280;33066;49.296;14.470;2023-10-08T03:46:53;97181.76;;;20.77;34.28
47082;BME280;33066;49.296;14.470;2023-10-08T03:49:19;97182.88;;;20.73;34.36
47082;BME280;33066;49.296;14.470;2023-10-08T03:51:44;97189.06;;;20.56;34.49
47082;BME280;33066;49.296;14.470;2023-10-08T03:54:09;97196.71;;;20.79;34.50
47082;BME280;33066;49.296;14.470;2023-10-08T03:56:35;97201.06;;;20.45;34.62
47082;BME280;33066;49.296;14.470;2023-10-08T03:59:00;97207.47;;;20.72;34.61
47082;BME280;33066;49.296;14.470;2023-10-08T04:01:25;97207.82;;;20.67;34.70
47082;BME280;33066;49.296;14.470;2023-10-08T04:03:50;97205.44;;;20.40;34.78
47082;BME280;33066;49.296;14.470;2023-10-08T04:06:15;97202.89;;;20.73;34.72
47082;BME280;33066;49.296;14.470;2023-10-08T04:08:40;97203.04;;;20.53;34.67
47082;BME280;33066;49.296;14.470;2023-10-08T04:11:05;97206.25;;;20.83;34.65
47082;BME280;33066;49.296;14.470;2023-10-08T04:13:31;97213.05;;;20.82;34.66
47082;BME280;33066;49.296;14.470;2023-10-08T04:15:56;97218.23;;;20.48;34.75
47082;BME280;33066;49.296;14.470;2023-10-08T04:18:22;97222.56;;;20.64;34.86
47082;BME280;33066;49.296;14.470;2023-10-08T04:20:47;97233.16;;;20.68;34.89
47082;BME280;33066;49.296;14.470;2023-10-08T04:23:12;97236.03;;;20.62;34.99
47082;BME280;33066;49.296;14.470;2023-10-08T04:25:37;97230.91;;;20.37;35.04
47082;BME280;33066;49.296;14.470;2023-10-08T04:28:03;97236.61;;;20.48;35.21
47082;BME280;33066;49.296;14.470;2023-10-08T04:30:28;97238.43;;;20.58;35.14
47082;BME280;33066;49.296;14.470;2023-10-08T04:32:53;97219.38;;;20.59;35.19
47082;BME280;33066;49.296;14.470;2023-10-08T04:35:18;97208.08;;;20.48;35.36
47082;BME280;33066;49.296;14.470;2023-10-08T04:37:43;97215.51;;;20.33;35.63
47082;BME280;33066;49.296;14.470;2023-10-08T04:40:09;97217.37;;;20.44;35.55
47082;BME280;33066;49.296;14.470;2023-10-08T04:42:34;97217.97;;;20.53;35.52
47082;BME280;33066;49.296;14.470;2023-10-08T04:44:59;97208.76;;;20.49;35.69
47082;BME280;33066;49.296;14.470;2023-10-08T04:47:24;97207.01;;;20.35;35.91
47082;BME280;33066;49.296;14.470;2023-10-08T04:49:49;97217.55;;;20.49;35.79
47082;BME280;33066;49.296;14.470;2023-10-08T04:52:14;97221.71;;;20.31;35.77
47082;BME280;33066;49.296;14.470;2023-10-08T04:54:40;97213.66;;;20.82;35.77
47082;BME280;33066;49.296;14.470;2023-10-08T04:57:05;97212.02;;;20.55;35.87
47082;BME280;33066;49.296;14.470;2023-10-08T04:59:30;97211.12;;;20.48;36.06
47082;BME280;33066;49.296;14.470;2023-10-08T05:01:55;97211.46;;;20.25;36.17
47082;BME280;33066;49.296;14.470;2023-10-08T05:04:21;97212.55;;;20.54;36.32
47082;BME280;33066;49.296;14.470;2023-10-08T05:06:46;97217.08;;;20.56;36.33
47082;BME280;33066;49.296;14.470;2023-10-08T05:09:12;97220.81;;;20.38;36.57
47082;BME280;33066;49.296;14.470;2023-10-08T05:11:36;97228.57;;;20.17;36.55
47082;BME280;33066;49.296;14.470;2023-10-08T05:14:01;97233.32;;;20.33;36.71
47082;BME280;33066;49.296;14.470;2023-10-08T05:16:26;97229.00;;;20.31;36.73
47082;BME280;33066;49.296;14.470;2023-10-08T05:18:51;97230.15;;;20.26;36.78
47082;BME280;33066;49.296;14.470;2023-10-08T05:21:17;97252.21;;;20.38;36.74
47082;BME280;33066;49.296;14.470;2023-10-08T05:23:42;97263.72;;;20.36;36.94
47082;BME280;33066;49.296;14.470;2023-10-08T05:26:08;97258.46;;;20.30;36.85
47082;BME280;33066;49.296;14.470;2023-10-08T05:28:33;97261.83;;;20.60;36.69
47082;BME280;33066;49.296;14.470;2023-10-08T05:30:58;97271.85;;;20.61;36.79
47082;BME280;33066;49.296;14.470;2023-10-08T05:33:23;97278.04;;;20.36;36.64
47082;BME280;33066;49.296;14.470;2023-10-08T05:35:48;97275.92;;;20.61;36.72
47082;BME280;33066;49.296;14.470;2023-10-08T05:38:16;97279.64;;;20.61;36.68
47082;BME280;33066;49.296;14.470;2023-10-08T05:40:42;97258.80;;;20.18;36.89
47082;BME280;33066;49.296;14.470;2023-10-08T05:43:05;97253.17;;;20.55;36.87
47082;BME280;33066;49.296;14.470;2023-10-08T05:45:31;97239.59;;;19.37;36.96
47082;BME280;33066;49.296;14.470;2023-10-08T05:47:56;97233.29;;;20.60;36.63
47082;BME280;33066;49.296;14.470;2023-10-08T05:50:20;97234.42;;;20.75;36.77
47082;BME280;33066;49.296;14.470;2023-10-08T05:52:46;97237.65;;;20.72;36.80
47082;BME280;33066;49.296;14.470;2023-10-08T05:55:11;97232.90;;;20.57;37.01
47082;BME280;33066;49.296;14.470;2023-10-08T05:57:36;97240.42;;;20.40;37.07
47082;BME280;33066;49.296;14.470;2023-10-08T06:00:02;97232.74;;;20.54;37.23
47082;BME280;33066;49.296;14.470;2023-10-08T06:02:28;97224.07;;;20.60;37.26
47082;BME280;33066;49.296;14.470;2023-10-08T06:04:52;97220.14;;;20.64;37.29
47082;BME280;33066;49.296;14.470;2023-10-08T06:07:17;97233.11;;;20.49;37.56
47082;BME280;33066;49.296;14.470;2023-10-08T06:09:42;97230.89;;;20.31;37.53
47082;BME280;33066;49.296;14.470;2023-10-08T06:12:08;97230.97;;;20.64;37.50
47082;BME280;33066;49.296;14.470;2023-10-08T06:14:33;97239.76;;;20.71;37.50
47082;BME280;33066;49.296;14.470;2023-10-08T06:16:58;97253.16;;;20.73;37.48
47082;BME280;33066;49.296;14.470;2023-10-08T06:19:23;97265.53;;;20.69;37.63
47082;BME280;33066;49.296;14.470;2023-10-08T06:21:49;97260.09;;;20.79;37.61
47082;BME280;33066;49.296;14.470;2023-10-08T06:24:14;97260.87;;;20.56;37.61
47082;BME280;33066;49.296;14.470;2023-10-08T06:26:39;97258.44;;;20.73;37.81
47082;BME280;33066;49.296;14.470;2023-10-08T06:29:04;97256.37;;;20.51;37.87
47082;BME280;33066;49.296;14.470;2023-10-08T06:31:29;97259.09;;;20.55;37.86
47082;BME280;33066;49.296;14.470;2023-10-08T06:33:54;97260.15;;;20.79;37.85
47082;BME280;33066;49.296;14.470;2023-10-08T06:36:20;97265.18;;;20.74;37.99
47082;BME280;33066;49.296;14.470;2023-10-08T06:38:46;97269.35;;;20.47;37.99
47082;BME280;33066;49.296;14.470;2023-10-08T06:41:12;97282.83;;;20.62;37.84
47082;BME280;33066;49.296;14.470;2023-10-08T06:43:36;97299.33;;;20.81;37.97
47082;BME280;33066;49.296;14.470;2023-10-08T06:46:00;97288.27;;;20.61;37.94
47082;BME280;33066;49.296;14.470;2023-10-08T06:48:26;97295.31;;;20.58;38.03
47082;BME280;33066;49.296;14.470;2023-10-08T06:50:52;97302.48;;;20.53;38.13
47082;BME280;33066;49.296;14.470;2023-10-08T06:53:17;97298.46;;;20.85;38.06
47082;BME280;33066;49.296;14.470;2023-10-08T06:55:41;97291.84;;;20.72;38.01
47082;BME280;33066;49.296;14.470;2023-10-08T06:58:07;97303.09;;;21.01;37.98
47082;BME280;33066;49.296;14.470;2023-10-08T07:00:32;97316.01;;;20.69;38.11
47082;BME280;33066;49.296;14.470;2023-10-08T07:02:56;97300.60;;;20.80;38.34
47082;BME280;33066;49.296;14.470;2023-10-08T07:05:22;97317.34;;;20.80;38.36
47082;BME280;33066;49.296;14.470;2023-10-08T07:07:47;97309.60;;;20.87;38.33
47082;BME280;33066;49.296;14.470;2023-10-08T07:10:13;97320.85;;;20.85;38.42
47082;BME280;33066;49.296;14.470;2023-10-08T07:12:37;97337.52;;;20.63;38.45
47082;BME280;33066;49.296;14.470;2023-10-08T07:15:04;97331.00;;;20.91;38.36
47082;BME280;33066;49.296;14.470;2023-10-08T07:17:28;97331.49;;;20.86;38.45
47082;BME280;33066;49.296;14.470;2023-10-08T07:19:55;97338.87;;;20.87;38.47
47082;BME280;33066;49.296;14.470;2023-10-08T07:22:19;97340.19;;;20.90;38.47
47082;BME280;33066;49.296;14.470;2023-10-08T07:24:44;97342.38;;;20.97;38.47
47082;BME280;33066;49.296;14.470;2023-10-08T07:27:09;97349.56;;;20.62;38.61
47082;BME280;33066;49.296;14.470;2023-10-08T07:29:35;97351.44;;;20.73;38.80
47082;BME280;33066;49.296;14.470;2023-10-08T07:32:00;97357.02;;;20.68;38.95
47082;BME280;33066;49.296;14.470;2023-10-08T07:34:25;97359.86;;;20.49;38.93
47082;BME280;33066;49.296;14.470;2023-10-08T07:36:51;97365.16;;;20.53;38.89
47082;BME280;33066;49.296;14.470;2023-10-08T07:39:16;97363.94;;;20.92;38.74
47082;BME280;33066;49.296;14.470;2023-10-08T07:41:40;97368.14;;;20.66;38.77
47082;BME280;33066;49.296;14.470;2023-10-08T07:44:06;97389.07;;;20.66;38.78
47082;BME280;33066;49.296;14.470;2023-10-08T07:46:31;97403.95;;;20.58;38.61
47082;BME280;33066;49.296;14.470;2023-10-08T07:48:56;97417.82;;;20.96;37.94
47082;BME280;33066;49.296;14.470;2023-10-08T07:51:21;97424.73;;;20.80;37.87
47082;BME280;33066;49.296;14.470;2023-10-08T07:53:46;97438.30;;;20.61;37.75
47082;BME280;33066;49.296;14.470;2023-10-08T07:56:11;97449.09;;;20.49;37.79
47082;BME280;33066;49.296;14.470;2023-10-08T07:58:37;97463.19;;;20.38;37.83
47082;BME280;33066;49.296;14.470;2023-10-08T08:01:03;97474.84;;;20.41;37.84
47082;BME280;33066;49.296;14.470;2023-10-08T08:03:28;97477.59;;;20.38;37.73
47082;BME280;33066;49.296;14.470;2023-10-08T08:05:53;97482.50;;;20.38;37.68
47082;BME280;33066;49.296;14.470;2023-10-08T08:08:20;97492.34;;;20.34;37.69
47082;BME280;33066;49.296;14.470;2023-10-08T08:10:44;97501.43;;;20.24;37.86
47082;BME280;33066;49.296;14.470;2023-10-08T08:13:08;97510.28;;;20.01;38.07
47082;BME280;33066;49.296;14.470;2023-10-08T08:15:34;97514.63;;;20.14;38.19
47082;BME280;33066;49.296;14.470;2023-10-08T08:17:59;97518.12;;;20.10;37.91
47082;BME280;33066;49.296;14.470;2023-10-08T08:20:24;97524.52;;;19.81;37.69
47082;BME280;33066;49.296;14.470;2023-10-08T08:22:50;97520.28;;;19.92;37.50
47082;BME280;33066;49.296;14.470;2023-10-08T08:25:16;97517.30;;;19.92;37.50
47082;BME280;33066;49.296;14.470;2023-10-08T08:27:40;97527.04;;;19.88;37.40
47082;BME280;33066;49.296;14.470;2023-10-08T08:30:06;97526.26;;;19.84;37.09
47082;BME280;33066;49.296;14.470;2023-10-08T08:32:30;97526.86;;;19.55;36.96
47082;BME280;33066;49.296;14.470;2023-10-08T08:34:55;97528.55;;;19.72;36.83
47082;BME280;33066;49.296;14.470;2023-10-08T08:37:20;97542.66;;;19.88;36.76
47082;BME280;33066;49.296;14.470;2023-10-08T08:39:46;97550.36;;;19.49;36.67
47082;BME280;33066;49.296;14.470;2023-10-08T08:42:11;97548.09;;;19.64;36.74
47082;BME280;33066;49.296;14.470;2023-10-08T08:44:37;97551.22;;;19.55;36.71
47082;BME280;33066;49.296;14.470;2023-10-08T08:47:01;97558.25;;;19.53;36.65
47082;BME280;33066;49.296;14.470;2023-10-08T08:49:26;97567.87;;;19.55;36.59
47082;BME280;33066;49.296;14.470;2023-10-08T08:51:52;97571.06;;;19.55;36.32
47082;BME280;33066;49.296;14.470;2023-10-08T08:54:17;97592.18;;;19.48;36.15
47082;BME280;33066;49.296;14.470;2023-10-08T08:56:44;97582.78;;;19.42;36.05
47082;BME280;33066;49.296;14.470;2023-10-08T08:59:08;97598.72;;;19.30;36.10
47082;BME280;33066;49.296;14.470;2023-10-08T09:01:34;97605.71;;;19.31;36.03
47082;BME280;33066;49.296;14.470;2023-10-08T09:03:59;97622.69;;;19.15;35.92
47082;BME280;33066;49.296;14.470;2023-10-08T09:06:23;97627.59;;;19.17;36.05
47082;BME280;33066;49.296;14.470;2023-10-08T09:08:48;97624.78;;;19.40;35.78
47082;BME280;33066;49.296;14.470;2023-10-08T09:11:15;97621.67;;;19.19;35.68
47082;BME280;33066;49.296;14.470;2023-10-08T09:13:38;97632.54;;;19.20;35.44
47082;BME280;33066;49.296;14.470;2023-10-08T09:16:08;97641.19;;;19.32;35.21
47082;BME280;33066;49.296;14.470;2023-10-08T09:18:29;97652.83;;;19.11;35.30
47082;BME280;33066;49.296;14.470;2023-10-08T09:20:54;97658.43;;;19.07;35.05
47082;BME280;33066;49.296;14.470;2023-10-08T09:23:19;97648.85;;;19.29;35.22
47082;BME280;33066;49.296;14.470;2023-10-08T09:25:46;97646.70;;;19.28;35.56
47082;BME280;33066;49.296;14.470;2023-10-08T09:28:10;97648.87;;;19.52;35.44
47082;BME280;33066;49.296;14.470;2023-10-08T09:30:35;97650.84;;;19.00;35.42
47082;BME280;33066;49.296;14.470;2023-10-08T09:33:01;97670.97;;;18.96;35.25
47082;BME280;33066;49.296;14.470;2023-10-08T09:35:25;97681.81;;;18.73;35.45
47082;BME280;33066;49.296;14.470;2023-10-08T09:37:50;97688.95;;;18.96;35.69
47082;BME280;33066;49.296;14.470;2023-10-08T09:40:17;97698.54;;;19.17;35.60
47082;BME280;33066;49.296;14.470;2023-10-08T09:42:41;97707.77;;;18.89;35.63
47082;BME280;33066;49.296;14.470;2023-10-08T09:45:06;97714.94;;;19.11;35.67
47082;BME280;33066;49.296;14.470;2023-10-08T09:47:31;97720.41;;;18.85;35.69
47082;BME280;33066;49.296;14.470;2023-10-08T09:50:03;97722.79;;;18.88;35.84
47082;BME280;33066;49.296;14.470;2023-10-08T09:52:27;97718.49;;;18.93;35.81
47082;BME280;33066;49.296;14.470;2023-10-08T09:55:00;97706.39;;;19.04;35.95
47082;BME280;33066;49.296;14.470;2023-10-08T09:57:13;97709.55;;;19.14;36.32
47082;BME280;33066;49.296;14.470;2023-10-08T09:59:39;97726.01;;;19.15;36.71
47082;BME280;33066;49.296;14.470;2023-10-08T10:02:03;97735.69;;;18.85;36.99
47082;BME280;33066;49.296;14.470;2023-10-08T10:04:30;97742.09;;;19.29;36.95
47082;BME280;33066;49.296;14.470;2023-10-08T10:06:53;97737.84;;;19.01;36.79
47082;BME280;33066;49.296;14.470;2023-10-08T10:09:20;97742.67;;;18.83;36.73
47082;BME280;33066;49.296;14.470;2023-10-08T10:11:48;97748.57;;;19.08;36.60
47082;BME280;33066;49.296;14.470;2023-10-08T10:14:09;97754.64;;;18.84;36.60
47082;BME280;33066;49.296;14.470;2023-10-08T10:16:36;97756.15;;;18.71;36.64
47082;BME280;33066;49.296;14.470;2023-10-08T10:18:59;97756.97;;;18.81;36.80
47082;BME280;33066;49.296;14.470;2023-10-08T10:21:27;97758.17;;;18.81;36.87
47082;BME280;33066;49.296;14.470;2023-10-08T10:23:49;97759.31;;;18.51;36.67
47082;BME280;33066;49.296;14.470;2023-10-08T10:26:27;97760.92;;;18.46;36.71
47082;BME280;33066;49.296;14.470;2023-10-08T10:28:39;97775.01;;;18.40;36.63
47082;BME280;33066;49.296;14.470;2023-10-08T10:31:04;97783.63;;;18.65;36.63
47082;BME280;33066;49.296;14.470;2023-10-08T10:33:30;97792.17;;;18.56;36.67
47082;BME280;33066;49.296;14.470;2023-10-08T10:35:55;97787.08;;;18.51;36.24
47082;BME280;33066;49.296;14.470;2023-10-08T10:38:21;97798.76;;;18.68;36.38
47082;BME280;33066;49.296;14.470;2023-10-08T10:40:49;97804.40;;;18.46;36.21
47082;BME280;33066;49.296;14.470;2023-10-08T10:43:11;97810.18;;;18.45;35.76
47082;BME280;33066;49.296;14.470;2023-10-08T10:45:36;97804.36;;;18.48;35.29
47082;BME280;33066;49.296;14.470;2023-10-08T10:48:02;97799.29;;;18.25;35.60
47082;BME280;33066;49.296;14.470;2023-10-08T10:50:27;97793.04;;;18.26;35.65
47082;BME280;33066;49.296;14.470;2023-10-08T10:52:52;97788.44;;;18.34;35.86
47082;BME280;33066;49.296;14.470;2023-10-08T10:55:18;97791.94;;;18.44;36.06
47082;BME280;33066;49.296;14.470;2023-10-08T10:57:43;97795.76;;;18.48;35.97
47082;BME280;33066;49.296;14.470;2023-10-08T11:00:09;97799.45;;;18.48;35.85
47082;BME280;33066;49.296;14.470;2023-10-08T11:02:33;97802.40;;;18.73;35.79
47082;BME280;33066;49.296;14.470;2023-10-08T11:04:58;97808.00;;;18.74;35.75
47082;BME280;33066;49.296;14.470;2023-10-08T11:07:24;97814.52;;;18.54;36.00
47082;BME280;33066;49.296;14.470;2023-10-08T11:09:49;97819.64;;;18.49;35.90
47082;BME280;33066;49.296;14.470;2023-10-08T11:12:14;97824.67;;;18.72;35.84
47082;BME280;33066;49.296;14.470;2023-10-08T11:14:40;97829.07;;;18.55;36.01
47082;BME280;33066;49.296;14.470;2023-10-08T11:17:10;97823.98;;;18.56;35.91
47082;BME280;33066;49.296;14.470;2023-10-08T11:19:32;97825.32;;;18.63;35.74
47082;BME280;33066;49.296;14.470;2023-10-08T11:21:54;97822.24;;;18.96;35.78
47082;BME280;33066;49.296;14.470;2023-10-08T11:24:28;97816.07;;;18.78;35.80
47082;BME280;33066;49.296;14.470;2023-10-08T11:26:45;97822.22;;;18.77;35.67
47082;BME280;33066;49.296;14.470;2023-10-08T11:29:10;97827.27;;;18.69;35.25
47082;BME280;33066;49.296;14.470;2023-10-08T11:31:35;97832.29;;;18.40;35.31
47082;BME280;33066;49.296;14.470;2023-10-08T11:34:02;97830.64;;;18.53;35.40
47082;BME280;33066;49.296;14.470;2023-10-08T11:36:28;97827.37;;;18.74;35.58
47082;BME280;33066;49.296;14.470;2023-10-08T11:38:51;97819.11;;;18.70;35.80
47082;BME280;33066;49.296;14.470;2023-10-08T11:41:17;97821.88;;;18.44;36.02
47082;BME280;33066;49.296;14.470;2023-10-08T11:43:41;97818.10;;;18.69;36.15
47082;BME280;33066;49.296;14.470;2023-10-08T11:46:06;97813.88;;;18.67;35.67
47082;BME280;33066;49.296;14.470;2023-10-08T11:48:31;97823.60;;;18.65;35.96
47082;BME280;33066;49.296;14.470;2023-10-08T11:50:56;97827.02;;;18.41;35.90
47082;BME280;33066;49.296;14.470;2023-10-08T11:53:22;97833.15;;;18.37;35.60
47082;BME280;33066;49.296;14.470;2023-10-08T11:55:47;97842.54;;;18.31;35.75
47082;BME280;33066;49.296;14.470;2023-10-08T11:58:13;97840.67;;;18.51;35.78
47082;BME280;33066;49.296;14.470;2023-10-08T12:00:39;97837.96;;;18.22;35.71
47082;BME280;33066;49.296;14.470;2023-10-08T12:03:03;97840.69;;;18.44;35.86
47082;BME280;33066;49.296;14.470;2023-10-08T12:05:28;97839.73;;;18.47;35.99
47082;BME280;33066;49.296;14.470;2023-10-08T12:07:53;97843.14;;;18.21;36.05
47082;BME280;33066;49.296;14.470;2023-10-08T12:10:20;97846.27;;;18.16;35.61
47082;BME280;33066;49.296;14.470;2023-10-08T12:12:44;97849.47;;;18.13;35.89
47082;BME280;33066;49.296;14.470;2023-10-08T12:15:10;97859.29;;;18.08;36.09
47082;BME280;33066;49.296;14.470;2023-10-08T12:17:35;97857.06;;;18.28;36.36
47082;BME280;33066;49.296;14.470;2023-10-08T12:20:00;97862.00;;;18.06;36.45
47082;BME280;33066;49.296;14.470;2023-10-08T12:22:25;97862.46;;;18.24;36.56
47082;BME280;33066;49.296;14.470;2023-10-08T12:24:50;97862.18;;;18.21;36.48
47082;BME280;33066;49.296;14.470;2023-10-08T12:27:15;97859.94;;;18.19;36.65
47082;BME280;33066;49.296;14.470;2023-10-08T12:29:40;97867.34;;;18.18;36.77
47082;BME280;33066;49.296;14.470;2023-10-08T12:32:06;97864.26;;;18.13;36.32
47082;BME280;33066;49.296;14.470;2023-10-08T12:34:31;97861.67;;;17.80;36.30
47082;BME280;33066;49.296;14.470;2023-10-08T12:36:56;97863.41;;;18.11;36.68
47082;BME280;33066;49.296;14.470;2023-10-08T12:39:21;97872.19;;;18.18;36.58